Time;durP1;ratioP1;P1;durP2;ratioP2;P2;SDS_P1;SDS_P2;PMS_P1;PMS_P2;Temp;Humidity;BMP_temperature;BMP_pressure;BME280_temperature;BME280_humidity;BME280_pressure;Samples;Min_cycle;Max_cycle;Signal;HPM_P1;HPM_P2
2022/12/12 00:01:39;;;;;;;46.17;28.53;;;-2.30;90.10;;;;;;4994880;28;20189;-87
2022/12/12 00:04:05;;;;;;;49.00;28.97;;;-2.30;90.10;;;;;;4977593;28;20233;-87
2022/12/12 00:06:31;;;;;;;49.37;30.40;;;-2.40;89.90;;;;;;4977088;28;20198;-87
2022/12/12 00:08:56;;;;;;;49.23;30.03;;;-2.40;90.00;;;;;;4977099;28;20214;-86
2022/12/12 00:11:23;;;;;;;49.13;29.93;;;-2.30;90.00;;;;;;4977462;28;20190;-87
2022/12/12 00:13:49;;;;;;;48.90;29.20;;;-2.40;89.90;;;;;;4977328;28;20178;-87
2022/12/12 00:16:15;;;;;;;47.33;29.17;;;-2.40;90.00;;;;;;4994285;28;20209;-86
2022/12/12 00:18:41;;;;;;;45.53;28.40;;;-2.50;90.00;;;;;;4976957;28;20174;-86
2022/12/12 00:21:12;;;;;;;50.23;30.50;;;-2.50;90.00;;;;;;4994229;28;20171;-86
2022/12/12 00:23:38;;;;;;;45.30;30.23;;;-2.50;90.00;;;;;;4977014;28;20170;-86
2022/12/12 00:26:07;;;;;;;51.90;30.37;;;-2.40;90.10;;;;;;4977031;28;20182;-86
2022/12/12 00:28:33;;;;;;;49.53;30.87;;;-2.40;90.10;;;;;;4976798;28;20186;-86
2022/12/12 00:30:59;;;;;;;48.17;30.37;;;-2.40;90.20;;;;;;4976764;28;20184;-86
2022/12/12 00:33:24;;;;;;;50.80;30.77;;;-2.40;90.10;;;;;;4994089;28;20644;-87
2022/12/12 00:35:52;;;;;;;51.63;33.63;;;-2.40;90.20;;;;;;4976650;28;20288;-87
2022/12/12 00:38:20;;;;;;;49.87;32.17;;;-2.40;90.20;;;;;;4976714;28;20195;-87
2022/12/12 00:40:46;;;;;;;49.73;31.33;;;-2.40;90.20;;;;;;4994157;28;20166;-87
2022/12/12 00:43:12;;;;;;;49.87;30.70;;;-2.30;90.30;;;;;;4994052;28;20177;-87
2022/12/12 00:45:38;;;;;;;49.10;30.30;;;-2.30;90.30;;;;;;4976551;28;20648;-87
2022/12/12 00:48:05;;;;;;;54.63;31.07;;;-2.30;90.30;;;;;;4976871;28;20197;-87
2022/12/12 00:50:32;;;;;;;51.13;32.50;;;-2.30;90.30;;;;;;4993957;28;20174;-87
2022/12/12 00:52:57;;;;;;;53.90;32.90;;;-2.20;90.40;;;;;;4994230;28;20174;-87
2022/12/12 00:55:24;;;;;;;50.97;30.63;;;-2.20;90.30;;;;;;4993816;28;20569;-87
2022/12/12 00:57:49;;;;;;;59.60;33.40;;;-2.20;90.30;;;;;;4993891;28;20188;-87
2022/12/12 01:00:15;;;;;;;53.17;31.50;;;-2.10;90.40;;;;;;4976357;28;20177;-87
2022/12/12 01:02:41;;;;;;;57.90;34.03;;;-2.20;90.40;;;;;;4993670;28;20187;-87
2022/12/12 01:05:07;;;;;;;52.67;33.17;;;-2.10;90.40;;;;;;4976392;28;20710;-87
2022/12/12 01:07:32;;;;;;;58.83;33.90;;;-2.10;90.40;;;;;;4993942;28;20199;-85
2022/12/12 01:09:58;;;;;;;49.30;30.93;;;-2.20;90.30;;;;;;4993780;28;20191;-87
2022/12/12 01:12:23;;;;;;;56.40;32.03;;;-2.20;90.30;;;;;;4993667;28;20189;-87
2022/12/12 01:14:49;;;;;;;53.37;31.63;;;-2.20;90.40;;;;;;4993691;28;20198;-86
2022/12/12 01:17:15;;;;;;;61.23;33.33;;;-2.20;90.40;;;;;;4976399;28;20593;-86
2022/12/12 01:19:40;;;;;;;54.30;33.23;;;-2.20;90.40;;;;;;4993616;28;20229;-86
2022/12/12 01:22:06;;;;;;;55.93;32.87;;;-2.30;90.50;;;;;;4976255;28;20184;-86
2022/12/12 01:24:31;;;;;;;54.50;32.70;;;-2.30;90.60;;;;;;4976244;28;20190;-87
2022/12/12 01:26:57;;;;;;;56.60;34.63;;;-2.30;90.60;;;;;;4976974;28;20209;-85
2022/12/12 01:29:22;;;;;;;56.73;33.83;;;-2.30;90.60;;;;;;4976205;28;20185;-87
2022/12/12 01:31:48;;;;;;;53.57;32.57;;;-2.30;90.70;;;;;;4976295;28;20190;-87
2022/12/12 01:34:13;;;;;;;55.93;33.83;;;-2.30;90.70;;;;;;4976371;28;20182;-87
2022/12/12 01:36:39;;;;;;;50.33;32.50;;;-2.30;90.60;;;;;;4993471;28;20193;-87
2022/12/12 01:39:05;;;;;;;54.37;33.00;;;-2.50;90.40;;;;;;4976171;28;20174;-87
2022/12/12 01:41:31;;;;;;;57.10;33.97;;;-2.60;90.40;;;;;;4976050;28;20179;-87
2022/12/12 01:44:00;;;;;;;58.17;34.73;;;-2.60;90.50;;;;;;4976042;28;20539;-87
2022/12/12 01:46:34;;;;;;;56.77;33.50;;;-2.70;90.50;;;;;;4975938;28;20181;-87
2022/12/12 01:49:06;;;;;;;51.10;31.87;;;-2.70;90.70;;;;;;4994007;28;20162;-87
2022/12/12 01:51:32;;;;;;;53.93;32.20;;;-2.70;90.80;;;;;;4976074;28;20220;-87
2022/12/12 01:54:10;;;;;;;54.97;32.43;;;-2.70;90.80;;;;;;4976324;28;20185;-87
2022/12/12 01:56:37;;;;;;;56.47;32.83;;;-2.80;90.80;;;;;;4993352;28;20551;-87
2022/12/12 01:59:06;;;;;;;53.33;32.20;;;-2.80;90.90;;;;;;4978954;28;20265;-87
2022/12/12 02:01:32;;;;;;;54.47;32.43;;;-2.80;91.00;;;;;;4979553;28;20227;-87
2022/12/12 02:03:59;;;;;;;51.70;30.57;;;-2.70;91.00;;;;;;4979631;28;20178;-87
2022/12/12 02:06:27;;;;;;;51.60;31.00;;;-2.70;91.00;;;;;;4979285;28;20177;-86
2022/12/12 02:08:56;;;;;;;54.73;32.43;;;-2.70;91.00;;;;;;4996748;28;20177;-87
2022/12/12 02:11:22;;;;;;;55.00;33.73;;;-2.80;90.90;;;;;;4979272;28;20724;-87
2022/12/12 02:13:48;;;;;;;53.13;32.20;;;-2.80;90.90;;;;;;4979612;28;20353;-87
2022/12/12 02:16:40;;;;;;;51.77;30.83;;;-2.80;91.00;;;;;;4996756;28;20194;-87
2022/12/12 02:19:28;;;;;;;51.50;31.87;;;-2.70;91.00;;;;;;4979539;28;20174;-87
2022/12/12 02:22:31;;;;;;;55.53;31.23;;;-2.70;91.00;;;;;;4979081;28;20174;-87
2022/12/12 02:25:19;;;;;;;51.93;32.07;;;-2.70;91.00;;;;;;4996452;28;20205;-87
2022/12/12 02:28:14;;;;;;;51.47;31.30;;;-2.70;90.90;;;;;;4978994;28;20218;-86
2022/12/12 02:31:17;;;;;;;48.40;29.63;;;-2.80;90.90;;;;;;4996466;28;20159;-87
2022/12/12 02:33:46;;;;;;;53.93;30.57;;;-2.70;91.00;;;;;;4978901;28;20191;-87
2022/12/12 02:36:41;;;;;;;46.13;29.97;;;-2.80;90.90;;;;;;4978735;28;20198;-86
2022/12/12 02:39:26;;;;;;;53.67;31.33;;;-2.70;91.00;;;;;;4979194;28;20269;-87
2022/12/12 02:41:58;;;;;;;49.23;29.70;;;-2.80;90.90;;;;;;4979615;28;20173;-87
2022/12/12 02:44:34;;;;;;;45.73;28.53;;;-2.70;90.90;;;;;;4978819;28;20546;-87
2022/12/12 02:47:22;;;;;;;54.27;29.43;;;-2.80;90.80;;;;;;4978559;28;20729;-87
2022/12/12 02:49:53;;;;;;;48.03;29.57;;;-2.80;90.80;;;;;;4978538;28;20274;-87
2022/12/12 02:52:19;;;;;;;54.57;32.23;;;-2.90;90.60;;;;;;4996039;28;20201;-87
2022/12/12 02:54:47;;;;;;;48.70;31.73;;;-3.00;90.50;;;;;;4978455;28;20226;-87
2022/12/12 02:57:16;;;;;;;44.97;29.53;;;-3.10;90.40;;;;;;4978773;28;20679;-86
2022/12/12 02:59:46;;;;;;;48.03;29.50;;;-3.20;90.30;;;;;;4978451;28;20267;-87
2022/12/12 03:02:42;;;;;;;50.63;31.43;;;-3.20;90.30;;;;;;4978260;28;20682;-87
2022/12/12 03:08:52;;;;;;;43.83;28.57;;;-3.20;90.30;;;;;;4995539;28;20284;-87
2022/12/12 03:11:41;;;;;;;49.00;29.50;;;-3.30;90.20;;;;;;4977935;28;20184;-87
2022/12/12 03:14:18;;;;;;;48.73;29.97;;;-3.20;90.20;;;;;;4978389;28;20673;-87
2022/12/12 03:16:56;;;;;;;49.73;29.57;;;-3.20;90.30;;;;;;4995748;28;20288;-86
2022/12/12 03:19:28;;;;;;;50.83;30.00;;;-3.20;90.20;;;;;;4995522;28;20175;-86
2022/12/12 03:22:17;;;;;;;48.80;29.63;;;-3.30;90.00;;;;;;4977948;28;20177;-87
2022/12/12 03:24:46;;;;;;;49.40;30.57;;;-3.30;90.10;;;;;;4951193;28;20197;-87
2022/12/12 03:27:41;;;;;;;54.63;30.40;;;-3.20;90.20;;;;;;4977943;28;20204;-86
2022/12/12 03:30:10;;;;;;;50.77;29.80;;;-3.20;90.20;;;;;;4941463;28;20194;-87
2022/12/12 03:32:52;;;;;;;55.27;30.97;;;-3.30;89.90;;;;;;4977846;28;20183;-87
2022/12/12 03:35:46;;;;;;;48.40;30.73;;;-3.40;90.00;;;;;;4995139;28;20226;-87
2022/12/12 03:38:14;;;;;;;50.67;31.00;;;-3.30;90.10;;;;;;4977611;28;20209;-86
2022/12/12 03:40:59;;;;;;;48.70;28.67;;;-3.30;90.00;;;;;;4977738;28;20187;-86
2022/12/12 03:43:52;;;;;;;50.87;30.43;;;-3.40;90.00;;;;;;4977648;28;20267;-86
2022/12/12 03:46:23;;;;;;;50.23;29.57;;;-3.40;90.00;;;;;;4972638;28;20652;-86
2022/12/12 03:48:59;;;;;;;48.93;29.70;;;-3.30;90.00;;;;;;4977521;28;20220;-87
2022/12/12 03:51:31;;;;;;;52.63;30.13;;;-3.30;89.90;;;;;;4977660;28;20166;-87
2022/12/12 03:54:08;;;;;;;45.70;28.37;;;-3.40;89.90;;;;;;4977440;28;20177;-86
2022/12/12 03:56:54;;;;;;;54.47;29.40;;;-3.40;89.90;;;;;;4977318;28;20324;-87
2022/12/12 03:59:25;;;;;;;50.00;29.23;;;-3.30;89.80;;;;;;4994545;28;20538;-86
2022/12/12 04:02:15;;;;;;;51.40;31.70;;;-3.30;89.80;;;;;;4977293;28;20544;-86
2022/12/12 04:05:16;;;;;;;53.20;31.20;;;-3.40;89.80;;;;;;4994644;28;20216;-87
2022/12/12 04:08:07;;;;;;;49.30;29.17;;;-3.40;89.80;;;;;;4978208;28;20201;-86
2022/12/12 04:13:33;;;;;;;52.97;28.20;;;-3.40;89.70;;;;;;4994883;28;20172;-86
2022/12/12 04:16:12;;;;;;;47.60;27.27;;;-3.40;89.60;;;;;;4976962;28;20198;-86
2022/12/12 04:18:51;;;;;;;45.17;29.10;;;-3.50;89.60;;;;;;4976943;28;20183;-86
2022/12/12 04:24:13;;;;;;;49.10;27.97;;;-3.60;89.50;;;;;;4994892;28;20635;-86
2022/12/12 04:26:51;;;;;;;51.57;29.63;;;-3.60;89.40;;;;;;4994432;28;20197;-86
2022/12/12 04:29:30;;;;;;;47.37;28.60;;;-3.70;89.40;;;;;;4976950;28;20243;-86
2022/12/12 04:32:27;;;;;;;46.73;27.47;;;-3.70;89.40;;;;;;4977682;28;20520;-86
2022/12/12 04:35:00;;;;;;;49.00;27.57;;;-3.70;89.30;;;;;;4976549;28;20202;-86
2022/12/12 04:37:49;;;;;;;46.30;27.73;;;-3.80;89.30;;;;;;4977529;28;20200;-86
2022/12/12 04:40:35;;;;;;;47.90;29.17;;;-3.80;89.30;;;;;;4994141;28;20222;-86
2022/12/12 04:43:28;;;;;;;50.53;28.10;;;-3.80;89.30;;;;;;4976624;28;20309;-86
2022/12/12 04:46:08;;;;;;;46.53;27.27;;;-3.80;89.20;;;;;;4976662;28;20290;-86
2022/12/12 04:48:45;;;;;;;45.80;26.93;;;-3.80;89.20;;;;;;4976671;28;20172;-86
2022/12/12 04:51:15;;;;;;;46.80;27.20;;;-3.90;89.10;;;;;;4976710;28;20178;-86
2022/12/12 04:53:51;;;;;;;37.70;26.37;;;-4.00;89.00;;;;;;4976484;28;20187;-86
2022/12/12 04:56:22;;;;;;;48.00;27.30;;;-4.00;88.90;;;;;;4993787;28;20573;-86
2022/12/12 04:58:48;;;;;;;45.13;26.67;;;-4.10;88.90;;;;;;4993902;28;20188;-86
2022/12/12 05:01:26;;;;;;;40.70;27.43;;;-4.20;88.50;;;;;;4976403;28;20650;-86
2022/12/12 05:03:59;;;;;;;41.60;26.23;;;-4.40;88.40;;;;;;4993776;28;20353;-86
2022/12/12 05:06:33;;;;;;;47.10;25.90;;;-4.40;88.30;;;;;;4976278;28;20222;-86
2022/12/12 05:09:00;;;;;;;41.40;25.60;;;-4.40;88.40;;;;;;4976451;28;20209;-86
2022/12/12 05:11:26;;;;;;;41.27;25.73;;;-4.40;88.30;;;;;;4976349;28;20187;-86
2022/12/12 05:13:51;;;;;;;40.07;24.70;;;-4.40;88.30;;;;;;4993683;28;20195;-86
2022/12/12 05:16:31;;;;;;;42.30;25.70;;;-4.50;88.20;;;;;;4976465;28;20253;-86
2022/12/12 05:18:57;;;;;;;44.30;26.63;;;-4.50;88.20;;;;;;4977205;28;20601;-86
2022/12/12 05:21:22;;;;;;;40.67;25.23;;;-4.50;88.10;;;;;;4976187;28;20179;-84
2022/12/12 05:23:48;;;;;;;39.57;25.27;;;-4.50;87.90;;;;;;4976252;28;20677;-86
2022/12/12 05:26:24;;;;;;;42.80;26.33;;;-4.60;87.80;;;;;;4976109;28;20651;-86
2022/12/12 05:28:50;;;;;;;47.70;26.07;;;-4.60;87.80;;;;;;4976390;28;20166;-86
2022/12/12 05:31:16;;;;;;;46.47;27.83;;;-4.60;87.80;;;;;;4976530;28;20186;-86
2022/12/12 05:33:41;;;;;;;43.23;27.53;;;-4.60;87.80;;;;;;4979607;28;20642;-86
2022/12/12 05:36:07;;;;;;;44.63;27.40;;;-4.60;87.80;;;;;;4979778;28;20252;-86
2022/12/12 05:38:33;;;;;;;49.27;28.63;;;-4.60;87.80;;;;;;4979898;28;20235;-86
2022/12/12 05:40:59;;;;;;;45.27;26.47;;;-4.70;87.80;;;;;;4980156;28;20177;-86
2022/12/12 05:43:24;;;;;;;53.37;29.47;;;-4.60;88.00;;;;;;4997328;28;20520;-86
2022/12/12 05:45:50;;;;;;;47.23;28.97;;;-4.60;88.30;;;;;;4997303;28;20183;-86
2022/12/12 05:48:16;;;;;;;51.60;29.63;;;-4.60;88.50;;;;;;4997055;28;20230;-86
2022/12/12 05:50:42;;;;;;;48.20;28.23;;;-4.60;88.60;;;;;;4979712;28;20182;-86
2022/12/12 05:53:07;;;;;;;45.37;28.73;;;-4.50;88.50;;;;;;4979620;28;20557;-86
2022/12/12 05:55:34;;;;;;;41.87;27.10;;;-4.60;88.30;;;;;;4996935;28;20293;-86
2022/12/12 05:57:59;;;;;;;41.93;27.80;;;-4.80;87.90;;;;;;4996846;28;20198;-85
2022/12/12 06:00:25;;;;;;;43.03;27.33;;;-5.00;87.50;;;;;;4997161;28;20178;-86
2022/12/12 06:02:51;;;;;;;44.83;27.03;;;-5.10;87.40;;;;;;4979575;28;20684;-86
2022/12/12 06:05:16;;;;;;;43.23;27.47;;;-5.20;87.40;;;;;;4996995;28;20336;-86
2022/12/12 06:07:42;;;;;;;47.53;27.53;;;-5.20;87.50;;;;;;4979392;28;20244;-86
2022/12/12 06:10:08;;;;;;;43.87;27.50;;;-5.10;87.70;;;;;;4979242;28;20182;-86
2022/12/12 06:12:33;;;;;;;46.30;27.17;;;-5.10;87.70;;;;;;4979546;28;20187;-86
2022/12/12 06:14:59;;;;;;;48.70;28.03;;;-5.00;87.80;;;;;;4979210;28;20206;-86
2022/12/12 06:17:24;;;;;;;45.73;26.97;;;-5.00;87.80;;;;;;4996584;28;20204;-86
2022/12/12 06:19:51;;;;;;;49.90;29.13;;;-5.00;87.80;;;;;;4979062;28;20262;-86
2022/12/12 06:22:16;;;;;;;45.10;28.17;;;-5.00;87.70;;;;;;4979085;28;20553;-86
2022/12/12 06:24:42;;;;;;;43.90;27.33;;;-5.10;87.70;;;;;;4979028;28;20291;-86
2022/12/12 06:27:07;;;;;;;45.37;27.03;;;-5.10;87.70;;;;;;4978896;28;20202;-86
2022/12/12 06:29:33;;;;;;;46.53;27.40;;;-5.10;87.70;;;;;;4978838;28;20185;-86
2022/12/12 06:31:58;;;;;;;41.93;25.60;;;-5.10;87.60;;;;;;4978788;28;20174;-86
2022/12/12 06:34:24;;;;;;;48.23;30.07;;;-5.10;87.60;;;;;;4996125;28;20181;-86
2022/12/12 06:36:49;;;;;;;47.30;29.37;;;-5.10;87.60;;;;;;4996210;28;20205;-86
2022/12/12 06:39:15;;;;;;;45.07;29.83;;;-5.10;87.60;;;;;;4978715;28;20174;-86
2022/12/12 06:41:41;;;;;;;48.67;31.00;;;-5.10;87.60;;;;;;4978732;28;20178;-86
2022/12/12 06:44:06;;;;;;;49.47;29.10;;;-5.00;87.60;;;;;;4978345;28;20735;-86
2022/12/12 06:46:32;;;;;;;44.40;25.90;;;-5.10;87.50;;;;;;4978478;28;20213;-86
2022/12/12 06:48:57;;;;;;;43.33;27.00;;;-5.10;87.50;;;;;;4978565;28;20181;-86
2022/12/12 06:51:26;;;;;;;44.37;26.80;;;-5.20;87.40;;;;;;4995992;28;20178;-85
2022/12/12 06:53:52;;;;;;;45.23;28.03;;;-5.30;87.30;;;;;;4979252;28;20277;-86
2022/12/12 06:56:21;;;;;;;46.03;28.93;;;-5.30;87.30;;;;;;4978267;28;20747;-86
2022/12/12 06:58:47;;;;;;;49.03;30.10;;;-5.40;87.10;;;;;;4995802;28;20250;-86
2022/12/12 07:01:18;;;;;;;47.37;28.53;;;-5.40;87.20;;;;;;4996080;28;20190;-86
2022/12/12 07:03:44;;;;;;;46.43;27.20;;;-5.30;87.30;;;;;;4995727;28;20258;-86
2022/12/12 07:06:09;;;;;;;47.33;28.10;;;-5.30;87.30;;;;;;4978083;28;20186;-86
2022/12/12 07:08:36;;;;;;;52.27;28.80;;;-5.30;87.20;;;;;;4978255;28;20228;-86
2022/12/12 07:11:07;;;;;;;43.07;26.17;;;-5.30;87.20;;;;;;4995544;28;20211;-86
2022/12/12 07:13:33;;;;;;;45.97;26.57;;;-5.30;87.20;;;;;;4978112;28;20181;-86
2022/12/12 07:15:58;;;;;;;52.70;30.03;;;-5.40;87.10;;;;;;4978068;28;20204;-86
2022/12/12 07:18:24;;;;;;;43.87;28.07;;;-5.40;87.20;;;;;;4977969;28;20202;-86
2022/12/12 07:20:49;;;;;;;46.10;28.23;;;-5.40;87.10;;;;;;4978051;28;20172;-86
2022/12/12 07:23:15;;;;;;;45.23;26.67;;;-5.40;87.10;;;;;;4977865;28;20659;-86
2022/12/12 07:25:43;;;;;;;42.77;26.30;;;-5.40;87.20;;;;;;4977857;28;20189;-86
2022/12/12 07:28:10;;;;;;;44.83;26.67;;;-5.50;87.10;;;;;;4977855;28;20202;-86
2022/12/12 07:30:41;;;;;;;45.40;25.60;;;-5.50;87.10;;;;;;4977776;28;20212;-86
2022/12/12 07:33:07;;;;;;;46.27;26.40;;;-5.50;87.10;;;;;;4995172;28;20252;-86
2022/12/12 07:35:33;;;;;;;43.10;25.57;;;-5.50;87.10;;;;;;4995055;28;20209;-86
2022/12/12 07:37:59;;;;;;;41.53;25.87;;;-5.60;87.00;;;;;;4977572;28;20603;-86
2022/12/12 07:40:24;;;;;;;42.13;26.60;;;-5.50;87.10;;;;;;4977606;28;20182;-86
2022/12/12 07:42:50;;;;;;;42.47;24.67;;;-5.50;87.00;;;;;;4977576;28;20229;-86
2022/12/12 07:45:16;;;;;;;40.43;24.30;;;-5.60;87.00;;;;;;4977885;28;20185;-86
2022/12/12 07:47:41;;;;;;;40.87;24.43;;;-5.60;86.90;;;;;;4977778;28;20212;-86
2022/12/12 07:50:07;;;;;;;39.40;24.47;;;-5.70;86.90;;;;;;4977320;28;20186;-86
2022/12/12 07:52:33;;;;;;;37.20;23.27;;;-5.60;86.90;;;;;;4977375;28;20190;-86
2022/12/12 07:54:58;;;;;;;40.43;24.37;;;-5.60;86.90;;;;;;4994413;28;20608;-85
2022/12/12 07:57:24;;;;;;;47.27;28.03;;;-5.70;86.90;;;;;;4994597;28;20198;-86
2022/12/12 07:59:49;;;;;;;45.47;26.73;;;-5.60;86.90;;;;;;4977578;28;20268;-86
2022/12/12 08:02:15;;;;;;;44.23;26.90;;;-5.60;86.80;;;;;;4977109;28;20248;-86
2022/12/12 08:04:40;;;;;;;39.33;25.37;;;-5.60;86.80;;;;;;4977240;28;20194;-86
2022/12/12 08:07:06;;;;;;;44.93;27.17;;;-5.60;86.80;;;;;;4977137;28;20280;-85
2022/12/12 08:09:31;;;;;;;39.93;25.07;;;-5.70;86.70;;;;;;4994535;28;20186;-86
2022/12/12 08:11:58;;;;;;;41.70;24.70;;;-5.70;86.70;;;;;;4977006;28;20186;-86
2022/12/12 08:14:25;;;;;;;44.83;27.90;;;-5.70;86.70;;;;;;4977029;28;20651;-86
2022/12/12 08:16:51;;;;;;;45.30;27.73;;;-5.70;86.70;;;;;;4994341;28;20252;-86
2022/12/12 08:19:16;;;;;;;44.37;25.43;;;-5.60;86.70;;;;;;4994343;28;20166;-86
2022/12/12 08:21:43;;;;;;;44.23;25.80;;;-5.70;86.60;;;;;;4976912;28;20583;-85
2022/12/12 08:24:11;;;;;;;45.17;28.40;;;-5.60;86.70;;;;;;4976797;28;20257;-85
2022/12/12 08:26:37;;;;;;;45.47;27.07;;;-5.60;86.70;;;;;;4976702;28;20202;-85
2022/12/12 08:29:03;;;;;;;51.67;28.67;;;-5.60;86.70;;;;;;4976794;28;20549;-86
2022/12/12 08:31:29;;;;;;;49.80;28.10;;;-5.60;86.70;;;;;;4977086;28;20178;-86
2022/12/12 08:33:55;;;;;;;48.63;29.27;;;-5.50;86.70;;;;;;4976697;28;20552;-86
2022/12/12 08:36:24;;;;;;;49.07;28.67;;;-5.50;86.60;;;;;;4993913;28;20190;-86
2022/12/12 08:38:50;;;;;;;52.07;28.67;;;-5.50;86.60;;;;;;4994028;28;20253;-86
2022/12/12 08:41:16;;;;;;;51.87;30.93;;;-5.50;86.70;;;;;;4976555;28;20212;-86
2022/12/12 08:43:42;;;;;;;53.20;31.87;;;-5.50;86.70;;;;;;4976504;28;20217;-86
2022/12/12 08:46:10;;;;;;;69.70;36.20;;;-5.40;87.30;;;;;;4976462;28;20186;-86
2022/12/12 08:48:35;;;;;;;72.13;37.83;;;-5.30;87.70;;;;;;4976498;28;20662;-86
2022/12/12 08:51:01;;;;;;;83.23;38.40;;;-5.30;88.10;;;;;;4993919;28;20257;-86
2022/12/12 08:53:27;;;;;;;68.57;35.23;;;-5.20;88.40;;;;;;4976416;28;20186;-86
2022/12/12 08:55:53;;;;;;;67.57;37.37;;;-5.20;88.70;;;;;;4976926;28;20208;-86
2022/12/12 08:58:18;;;;;;;63.17;33.17;;;-5.00;88.90;;;;;;4993708;28;20201;-86
2022/12/12 09:00:44;;;;;;;69.77;36.93;;;-5.00;89.10;;;;;;4993780;28;20174;-83
2022/12/12 09:03:10;;;;;;;71.97;38.20;;;-5.00;89.20;;;;;;4976166;28;20648;-85
2022/12/12 09:05:35;;;;;;;71.67;35.80;;;-5.00;89.20;;;;;;4976212;28;20183;-85
2022/12/12 09:08:01;;;;;;;82.47;39.13;;;-4.90;89.20;;;;;;4997034;28;20202;-87
2022/12/12 09:10:27;;;;;;;64.77;35.23;;;-4.90;89.20;;;;;;4997857;28;20182;-85
2022/12/12 09:12:53;;;;;;;66.37;36.63;;;-4.90;89.20;;;;;;4997786;28;20189;-86
2022/12/12 09:15:20;;;;;;;67.43;34.40;;;-4.90;89.30;;;;;;4980098;28;20202;-86
2022/12/12 09:17:45;;;;;;;68.27;35.53;;;-4.80;89.40;;;;;;4980146;28;20194;-86
2022/12/12 09:20:11;;;;;;;79.60;36.67;;;-4.80;89.50;;;;;;4997567;28;20530;-86
2022/12/12 09:22:37;;;;;;;81.30;36.57;;;-4.70;89.70;;;;;;4980081;28;20281;-86
2022/12/12 09:25:03;;;;;;;73.80;37.67;;;-4.60;89.80;;;;;;4980154;28;20178;-86
2022/12/12 09:27:29;;;;;;;71.67;37.30;;;-4.60;89.90;;;;;;4979961;28;20692;-86
2022/12/12 09:29:55;;;;;;;72.70;37.63;;;-4.60;89.90;;;;;;4980139;28;20188;-86
2022/12/12 09:32:21;;;;;;;74.27;38.97;;;-4.50;90.10;;;;;;4980045;28;20182;-86
2022/12/12 09:34:47;;;;;;;81.27;39.33;;;-4.40;90.20;;;;;;4979818;28;20202;-86
2022/12/12 09:37:13;;;;;;;75.10;36.60;;;-4.40;90.30;;;;;;4980387;28;20209;-86
2022/12/12 09:39:38;;;;;;;78.07;41.07;;;-4.30;90.40;;;;;;4979823;28;20190;-86
2022/12/12 09:42:17;;;;;;;72.43;39.40;;;-4.20;90.60;;;;;;4979749;28;20172;-85
2022/12/12 09:44:43;;;;;;;75.87;38.93;;;-4.10;90.70;;;;;;4979690;28;20211;-85
2022/12/12 09:47:16;;;;;;;82.20;40.10;;;-4.00;90.70;;;;;;4979571;28;20198;-85
2022/12/12 09:49:47;;;;;;;85.40;41.87;;;-4.00;90.70;;;;;;4979604;28;20651;-85
2022/12/12 09:52:25;;;;;;;84.07;40.30;;;-3.90;90.90;;;;;;4980401;28;20174;-86
2022/12/12 09:54:51;;;;;;;78.87;41.53;;;-3.80;90.90;;;;;;4979797;28;20200;-86
2022/12/12 09:57:31;;;;;;;96.60;43.23;;;-3.70;91.00;;;;;;4996916;28;20203;-87
2022/12/12 10:00:08;;;;;;;74.80;39.87;;;-3.50;91.10;;;;;;4979482;28;20171;-86
2022/12/12 10:02:48;;;;;;;87.80;42.83;;;-3.30;91.20;;;;;;4979293;28;20208;-86
2022/12/12 10:05:32;;;;;;;80.03;42.13;;;-3.20;91.40;;;;;;4979392;28;20245;-87
2022/12/12 10:08:17;;;;;;;83.83;40.33;;;-3.10;91.40;;;;;;4979314;28;20331;-87
2022/12/12 10:10:46;;;;;;;93.67;43.03;;;-3.00;91.50;;;;;;4979375;28;20273;-87
2022/12/12 10:13:24;;;;;;;95.80;43.37;;;-2.90;91.50;;;;;;4979175;28;20198;-87
2022/12/12 10:16:03;;;;;;;88.03;43.33;;;-2.70;91.60;;;;;;4979692;28;20201;-87
2022/12/12 10:18:37;;;;;;;81.63;42.10;;;-2.70;91.70;;;;;;4996197;28;20209;-87
2022/12/12 10:21:08;;;;;;;90.40;43.70;;;-2.60;91.80;;;;;;4979854;28;20626;-87
2022/12/12 10:23:47;;;;;;;81.03;42.37;;;-2.50;91.80;;;;;;4979350;28;20257;-87
2022/12/12 10:26:17;;;;;;;90.50;42.50;;;-2.40;91.80;;;;;;4996935;28;20155;-87
2022/12/12 10:28:43;;;;;;;77.70;40.13;;;-2.30;91.80;;;;;;4997003;28;20165;-87
2022/12/12 10:31:15;;;;;;;77.33;40.87;;;-2.30;91.80;;;;;;4979276;28;20544;-88
2022/12/12 10:33:57;;;;;;;83.77;42.70;;;-2.30;91.80;;;;;;4979711;28;20619;-88
2022/12/12 10:36:54;;;;;;;82.60;41.90;;;-2.30;91.70;;;;;;4979493;28;20206;-87
2022/12/12 10:39:53;;;;;;;79.70;41.80;;;-2.30;91.70;;;;;;4978751;28;20166;-88
2022/12/12 10:42:45;;;;;;;83.10;42.27;;;-2.20;91.70;;;;;;4996446;28;20165;-88
2022/12/12 10:45:37;;;;;;;80.90;42.47;;;-2.20;91.60;;;;;;4979446;28;20178;-88
2022/12/12 10:48:03;;;;;;;87.47;43.07;;;-2.10;91.60;;;;;;4992992;28;20264;-87
2022/12/12 10:50:39;;;;;;;89.97;41.53;;;-2.10;91.50;;;;;;4978897;28;20181;-88
2022/12/12 10:53:07;;;;;;;88.57;40.90;;;-2.10;91.40;;;;;;4978620;28;20231;-88
2022/12/12 10:55:53;;;;;;;84.63;41.30;;;-2.10;91.40;;;;;;4995880;28;20259;-87
2022/12/12 10:58:25;;;;;;;89.60;43.83;;;-2.00;91.40;;;;;;4995772;28;20190;-88
2022/12/12 11:00:58;;;;;;;86.40;43.27;;;-2.00;91.40;;;;;;4979200;28;20170;-88
2022/12/12 11:03:37;;;;;;;97.80;44.30;;;-1.90;91.30;;;;;;4978484;28;20193;-88
2022/12/12 11:06:11;;;;;;;78.20;41.13;;;-1.80;91.30;;;;;;4995717;28;20178;-88
2022/12/12 11:08:38;;;;;;;85.33;43.07;;;-1.80;91.30;;;;;;4995656;28;20177;-88
2022/12/12 11:11:18;;;;;;;85.93;42.47;;;-1.70;91.20;;;;;;4996175;28;20201;-89
2022/12/12 11:14:19;;;;;;;86.43;42.30;;;-1.70;91.20;;;;;;4995620;28;20186;-88
2022/12/12 11:16:45;;;;;;;81.90;41.83;;;-1.70;91.10;;;;;;4995588;28;20742;-89
2022/12/12 11:19:24;;;;;;;87.37;42.93;;;-1.40;91.30;;;;;;4995678;28;20197;-88
2022/12/12 11:21:52;;;;;;;88.60;42.63;;;-1.30;91.20;;;;;;4995349;28;20333;-88
2022/12/12 11:24:26;;;;;;;73.50;41.87;;;-1.40;90.90;;;;;;4995534;28;20173;-88
2022/12/12 11:26:57;;;;;;;82.90;44.70;;;-1.30;91.00;;;;;;4977860;28;20237;-88
2022/12/12 11:29:45;;;;;;;80.60;43.80;;;-0.90;91.10;;;;;;4977569;28;20586;-89
2022/12/12 11:32:14;;;;;;;78.80;41.97;;;-1.00;90.60;;;;;;4995134;28;20169;-86
2022/12/12 11:34:44;;;;;;;80.47;40.20;;;-1.00;90.40;;;;;;4995460;28;20171;-86
2022/12/12 11:37:19;;;;;;;71.40;39.83;;;-1.10;90.20;;;;;;4977854;28;20695;-89
2022/12/12 11:39:49;;;;;;;74.03;36.80;;;-1.10;90.00;;;;;;4977701;28;20632;-88
2022/12/12 11:42:14;;;;;;;71.43;38.20;;;-1.10;90.00;;;;;;4995029;28;20208;-88
2022/12/12 11:44:42;;;;;;;81.23;41.77;;;-1.00;89.90;;;;;;4977554;28;20186;-89
2022/12/12 11:47:17;;;;;;;77.13;38.70;;;-0.90;89.80;;;;;;4977479;28;20229;-88
2022/12/12 11:49:47;;;;;;;73.83;39.67;;;-0.90;89.70;;;;;;4978115;28;20178;-88
2022/12/12 11:52:30;;;;;;;75.50;38.60;;;-0.90;89.50;;;;;;4996835;28;20172;-91
2022/12/12 11:54:57;;;;;;;76.37;39.00;;;-0.90;89.40;;;;;;4977355;28;20198;-91
2022/12/12 11:57:30;;;;;;;75.77;41.27;;;-0.90;89.30;;;;;;4977271;28;20339;-91
2022/12/12 12:00:04;;;;;;;75.03;39.03;;;-0.90;89.20;;;;;;4994857;28;20244;-89
2022/12/12 12:02:33;;;;;;;79.70;41.93;;;-0.80;89.20;;;;;;4994639;28;20261;-89
2022/12/12 12:05:13;;;;;;;77.40;40.80;;;-0.70;89.30;;;;;;4977106;28;20180;-92
2022/12/12 12:08:00;;;;;;;74.23;41.93;;;-0.60;89.40;;;;;;4994515;28;20191;-89
2022/12/12 12:10:49;;;;;;;82.60;41.80;;;-0.60;89.20;;;;;;4977143;28;20278;-89
2022/12/12 12:13:51;;;;;;;76.10;43.03;;;-0.10;89.40;;;;;;4985613;28;20198;-89
2022/12/12 12:16:45;;;;;;;76.17;42.90;;;-0.20;88.60;;;;;;4973975;28;20219;-87
2022/12/12 12:19:42;;;;;;;77.87;42.37;;;-0.10;88.60;;;;;;4978015;28;20222;-89
2022/12/12 12:22:11;;;;;;;76.10;38.13;;;0.10;88.40;;;;;;4984401;28;20178;-93
2022/12/12 12:25:01;;;;;;;69.03;40.27;;;0.10;87.80;;;;;;4984757;28;20550;-92
2022/12/12 12:27:55;;;;;;;74.93;38.33;;;0.30;87.60;;;;;;5006602;28;20197;-92
2022/12/12 12:30:22;;;;;;;64.70;35.77;;;0.30;87.30;;;;;;4971216;28;20180;-90
2022/12/12 12:33:06;;;;;;;71.63;39.10;;;0.50;86.80;;;;;;4977397;28;20666;-89
2022/12/12 12:35:43;;;;;;;69.80;38.20;;;0.60;86.40;;;;;;4976698;28;20199;-90
2022/12/12 12:38:24;;;;;;;75.80;39.50;;;0.70;86.20;;;;;;4994104;28;20196;-90
2022/12/12 12:40:56;;;;;;;65.60;38.40;;;0.90;85.70;;;;;;4993918;28;20155;-89
2022/12/12 12:43:28;;;;;;;62.10;37.63;;;0.50;84.80;;;;;;4976579;28;20594;-89
2022/12/12 12:46:11;;;;;;;70.73;39.03;;;0.30;84.60;;;;;;4994450;28;20208;-89
2022/12/12 12:48:43;;;;;;;71.87;39.57;;;0.30;84.80;;;;;;4977336;28;20170;-89
2022/12/12 12:51:26;;;;;;;72.53;39.23;;;0.30;85.10;;;;;;4994086;28;20180;-89
2022/12/12 12:54:16;;;;;;;67.17;38.77;;;0.40;85.40;;;;;;4994008;28;20166;-89
2022/12/12 12:56:52;;;;;;;65.40;38.97;;;0.60;85.60;;;;;;4993825;28;20619;-90
2022/12/12 12:59:26;;;;;;;61.13;36.40;;;0.70;85.20;;;;;;4993963;28;20666;-90
2022/12/12 13:01:54;;;;;;;70.93;38.93;;;0.80;84.80;;;;;;4977157;28;20671;-89